Time;durP1;ratioP1;P1;durP2;ratioP2;P2;SDS_P1;SDS_P2;PMS_P1;PMS_P2;Temp;Humidity;BMP_temperature;BMP_pressure;BME280_temperature;BME280_humidity;BME280_pressure;Samples;Min_cycle;Max_cycle;Signal;HPM_P1;HPM_P2
2024/04/09 00:03:46;;;;;;;16.85;5.30;;;;;;;16.17;100.00;98953.19;11332842;26;20002;-38
2024/04/09 00:08:48;;;;;;;14.50;5.28;;;;;;;16.19;100.00;98927.69;11325745;26;20440;-38
2024/04/09 00:13:51;;;;;;;16.23;5.78;;;;;;;16.18;100.00;98931.22;11328276;26;20074;-38
2024/04/09 00:18:53;;;;;;;20.95;5.38;;;;;;;16.19;100.00;98922.41;11333834;26;20068;-38
2024/04/09 00:23:56;;;;;;;14.80;5.10;;;;;;;16.23;100.00;98929.38;11323591;26;20022;-41
2024/04/09 00:28:58;;;;;;;18.30;5.30;;;;;;;16.24;100.00;98912.69;11328636;26;19998;-38
2024/04/09 00:33:59;;;;;;;14.95;5.20;;;;;;;16.23;100.00;98898.59;11320404;26;20017;-38
2024/04/09 00:39:00;;;;;;;22.48;5.40;;;;;;;16.23;100.00;98911.78;11318233;26;20008;-38
2024/04/09 00:44:02;;;;;;;18.30;5.03;;;;;;;16.23;100.00;98921.47;11335428;26;20030;-38
2024/04/09 00:49:03;;;;;;;12.93;4.53;;;;;;;16.24;100.00;98931.13;11291662;26;20013;-38
2024/04/09 00:54:04;;;;;;;15.43;4.50;;;;;;;16.30;100.00;98956.50;11322543;26;20013;-38
2024/04/09 00:59:05;;;;;;;28.10;4.40;;;;;;;16.58;100.00;98955.22;11339536;26;20454;-38
2024/04/09 01:04:06;;;;;;;23.73;4.18;;;;;;;16.78;100.00;98944.41;11320807;26;20002;-38
2024/04/09 01:09:08;;;;;;;19.45;4.15;;;;;;;16.86;100.00;98942.47;11335853;26;19997;-38
2024/04/09 01:14:10;;;;;;;16.80;4.57;;;;;;;16.80;100.00;98910.06;11328753;26;20098;-38
2024/04/09 01:19:11;;;;;;;21.38;4.88;;;;;;;16.74;100.00;98884.59;11320281;26;20434;-38
2024/04/09 01:24:12;;;;;;;15.43;4.25;;;;;;;16.70;100.00;98880.28;11333091;26;19990;-38
2024/04/09 01:29:14;;;;;;;20.33;4.05;;;;;;;16.75;100.00;98888.13;11318589;26;19994;-39
2024/04/09 01:34:16;;;;;;;35.78;5.80;;;;;;;17.07;84.31;98895.53;11319949;26;20047;-39
2024/04/09 01:39:17;;;;;;;24.10;5.68;;;;;;;17.43;77.17;98874.56;11324516;26;20099;-38
2024/04/09 01:44:18;;;;;;;25.98;5.00;;;;;;;17.92;71.04;98863.00;11325248;26;20332;-38
2024/04/09 01:49:20;;;;;;;31.55;5.20;;;;;;;18.16;71.36;98878.31;11328902;26;20470;-38
2024/04/09 01:54:21;;;;;;;23.52;4.90;;;;;;;18.04;74.71;98863.59;11323370;26;20005;-38
2024/04/09 01:59:22;;;;;;;24.88;4.70;;;;;;;18.07;71.33;98828.28;11328539;26;20006;-38
2024/04/09 02:04:23;;;;;;;23.40;4.80;;;;;;;18.19;68.87;98814.78;11327665;26;19995;-38
2024/04/09 02:09:25;;;;;;;25.10;4.60;;;;;;;18.36;66.77;98801.13;11320929;26;20305;-38
2024/04/09 02:14:27;;;;;;;31.35;5.15;;;;;;;18.30;67.73;98788.94;11326230;26;20338;-39
2024/04/09 02:19:28;;;;;;;28.02;5.20;;;;;;;18.28;66.42;98801.31;11334797;26;20010;-40
2024/04/09 02:24:29;;;;;;;30.05;4.85;;;;;;;18.10;72.70;98876.66;11318155;26;19998;-38
2024/04/09 02:29:31;;;;;;;28.80;5.07;;;;;;;18.25;67.88;98864.88;11325677;26;20075;-38
2024/04/09 02:34:35;;;;;;;26.10;4.93;;;;;;;18.44;67.07;98880.31;11321780;26;19998;-38
2024/04/09 02:39:37;;;;;;;25.33;5.10;;;;;;;18.37;68.55;98886.66;11323491;26;20002;-38
2024/04/09 02:44:38;;;;;;;27.40;4.82;;;;;;;18.18;72.31;98908.25;11323232;26;20009;-38
2024/04/09 02:49:39;;;;;;;24.60;5.10;;;;;;;17.93;77.52;98934.34;11325730;26;19994;-38
2024/04/09 02:54:40;;;;;;;21.67;4.30;;;;;;;17.63;87.87;98943.72;11344504;26;20332;-38
2024/04/09 02:59:41;;;;;;;21.15;4.50;;;;;;;17.31;100.00;98950.50;11329365;26;20074;-38
2024/04/09 03:04:42;;;;;;;26.33;5.03;;;;;;;17.05;100.00;98958.00;11333559;26;19998;-38
2024/04/09 03:09:44;;;;;;;19.98;4.57;;;;;;;16.88;100.00;98968.88;11335254;26;20010;-38
2024/04/09 03:14:45;;;;;;;24.58;5.63;;;;;;;16.75;100.00;98991.94;11320635;26;20009;-38
2024/04/09 03:19:49;;;;;;;23.67;5.50;;;;;;;16.54;100.00;98997.50;11343129;26;20006;-37
2024/04/09 03:24:50;;;;;;;21.88;5.15;;;;;;;16.47;100.00;98997.56;11326452;26;19994;-38
2024/04/09 03:29:51;;;;;;;22.15;5.07;;;;;;;16.24;100.00;98999.69;11294565;26;20099;-38
2024/04/09 03:34:52;;;;;;;24.48;5.80;;;;;;;16.09;100.00;99003.38;11336586;26;19999;-38
2024/04/09 03:39:53;;;;;;;20.35;4.97;;;;;;;16.04;100.00;99035.94;11329805;26;19994;-38
2024/04/09 03:44:55;;;;;;;26.85;5.90;;;;;;;16.01;100.00;99050.88;11329343;26;20026;-37
2024/04/09 03:49:58;;;;;;;24.42;6.20;;;;;;;16.01;100.00;99071.97;11332187;26;20008;-37
2024/04/09 03:55:00;;;;;;;26.50;6.15;;;;;;;15.97;100.00;99069.41;11323852;26;20006;-38
2024/04/09 04:00:02;;;;;;;21.63;5.80;;;;;;;15.76;100.00;99123.16;11340019;26;20002;-38
2024/04/09 04:05:12;;;;;;;20.85;5.80;;;;;;;15.82;100.00;99133.66;11332375;26;20348;-38
2024/04/09 04:10:13;;;;;;;21.80;6.22;;;;;;;15.76;100.00;99142.50;11323696;26;20002;-38
2024/04/09 04:15:15;;;;;;;22.58;5.97;;;;;;;15.63;100.00;99101.31;11329129;26;19998;-38
2024/04/09 04:20:16;;;;;;;17.92;5.80;;;;;;;15.50;100.00;99100.53;11333332;26;20010;-38
2024/04/09 04:25:17;;;;;;;21.95;6.30;;;;;;;15.55;100.00;99109.28;11328426;26;20318;-38
2024/04/09 04:30:19;;;;;;;22.42;6.07;;;;;;;15.47;100.00;99133.94;11328360;26;19994;-38
2024/04/09 04:35:20;;;;;;;19.58;6.32;;;;;;;15.38;100.00;99142.78;11329646;26;19998;-38
2024/04/09 04:40:21;;;;;;;20.17;6.18;;;;;;;15.28;100.00;99146.34;11334002;26;20077;-37
2024/04/09 04:45:22;;;;;;;22.63;6.15;;;;;;;15.18;100.00;99149.94;11326231;26;20010;-38
2024/04/09 04:50:23;;;;;;;19.50;6.32;;;;;;;15.04;100.00;99131.63;11325711;26;19999;-38
2024/04/09 04:55:24;;;;;;;23.15;6.60;;;;;;;15.04;100.00;99148.28;11342722;26;20031;-37
2024/04/09 05:00:26;;;;;;;26.88;6.70;;;;;;;15.02;100.00;99151.78;11317371;26;20096;-38
2024/04/09 05:05:28;;;;;;;16.00;5.78;;;;;;;14.95;100.00;99176.41;11330566;26;20001;-39
2024/04/09 05:10:30;;;;;;;18.13;6.35;;;;;;;15.14;100.00;99190.31;11337237;26;20340;-38
2024/04/09 05:15:31;;;;;;;23.40;7.00;;;;;;;15.20;100.00;99191.16;11320625;26;19999;-38
2024/04/09 05:20:32;;;;;;;22.23;6.63;;;;;;;15.19;100.00;99180.63;11328922;26;20337;-37
2024/04/09 05:25:33;;;;;;;24.40;6.60;;;;;;;15.22;100.00;99170.97;11324103;26;20071;-38
2024/04/09 05:30:34;;;;;;;21.20;7.05;;;;;;;15.23;100.00;99148.16;11327166;26;20444;-37
2024/04/09 05:35:36;;;;;;;25.77;7.45;;;;;;;15.21;100.00;99156.06;11333747;26;20013;-38
2024/04/09 05:40:37;;;;;;;20.27;6.80;;;;;;;15.17;100.00;99177.16;11325719;26;20017;-38
2024/04/09 05:45:38;;;;;;;22.42;7.20;;;;;;;15.02;100.00;99221.06;11333186;26;19990;-38
2024/04/09 05:50:39;;;;;;;20.73;6.57;;;;;;;14.99;100.00;99243.91;11318593;26;20070;-37
2024/04/09 05:55:41;;;;;;;23.70;6.38;;;;;;;14.93;100.00;99283.38;11324708;26;20034;-38
2024/04/09 06:00:42;;;;;;;19.55;6.13;;;;;;;14.86;100.00;99261.50;11337853;26;20340;-38
2024/04/09 06:05:43;;;;;;;20.02;6.07;;;;;;;14.81;100.00;99281.66;11316090;26;20009;-39
2024/04/09 06:10:45;;;;;;;18.05;5.10;;;;;;;14.77;100.00;99237.84;11319371;26;19998;-39
2024/04/09 06:15:47;;;;;;;14.13;4.90;;;;;;;14.81;100.00;99208.00;11331193;26;20002;-38
2024/04/09 06:20:48;;;;;;;19.45;5.15;;;;;;;14.67;100.00;99147.59;11320457;26;19998;-39
2024/04/09 06:25:54;;;;;;;20.38;5.00;;;;;;;14.74;100.00;99237.84;11334403;26;20001;-38
2024/04/09 06:30:55;;;;;;;14.38;5.10;;;;;;;14.78;100.00;99255.38;11330779;26;20717;-38
2024/04/09 06:35:57;;;;;;;15.98;4.50;;;;;;;14.80;100.00;99288.69;11330408;26;20446;-42
2024/04/09 06:40:58;;;;;;;13.43;4.40;;;;;;;14.65;100.00;99329.91;11335221;26;20476;-40
2024/04/09 06:45:59;;;;;;;13.13;4.35;;;;;;;14.56;100.00;99315.06;11321115;26;20016;-37
2024/04/09 06:51:00;;;;;;;10.68;3.67;;;;;;;14.39;100.00;99321.16;11340678;26;19994;-38
2024/04/09 06:56:03;;;;;;;13.60;3.78;;;;;;;14.41;100.00;99281.72;11325808;26;20038;-37
2024/04/09 07:01:04;;;;;;;11.52;3.60;;;;;;;14.29;100.00;99303.63;11295212;26;20025;-37
2024/04/09 07:06:05;;;;;;;10.35;4.25;;;;;;;14.19;100.00;99273.00;11334362;26;19998;-38
2024/04/09 07:11:06;;;;;;;10.93;3.60;;;;;;;14.20;100.00;99221.28;11322875;26;20013;-38
2024/04/09 07:16:10;;;;;;;14.00;3.92;;;;;;;14.19;100.00;99308.91;11321307;26;20012;-38
2024/04/09 07:21:11;;;;;;;10.57;4.25;;;;;;;14.19;100.00;99312.41;11336296;26;20462;-38
2024/04/09 07:26:13;;;;;;;11.10;4.47;;;;;;;14.29;100.00;99308.03;11321608;26;20002;-36
2024/04/09 07:31:15;;;;;;;10.10;4.60;;;;;;;14.57;100.00;99322.06;11335607;26;20458;-38
2024/04/09 07:36:16;;;;;;;9.10;3.97;;;;;;;14.50;100.00;99339.56;11332923;26;21536;-38
2024/04/09 07:41:18;;;;;;;15.23;4.72;;;;;;;14.76;100.00;99341.31;11323612;26;20006;-38
2024/04/09 07:46:19;;;;;;;12.88;4.93;;;;;;;14.75;100.00;99361.47;11328081;26;19990;-38
2024/04/09 07:51:20;;;;;;;10.30;4.50;;;;;;;14.58;100.00;99368.50;11320286;26;20006;-39
2024/04/09 07:56:22;;;;;;;8.65;4.43;;;;;;;14.58;100.00;99334.31;11335398;26;20013;-38
2024/04/09 08:01:23;;;;;;;10.48;5.80;;;;;;;14.28;100.00;99350.97;11323797;26;19998;-38
2024/04/09 08:06:27;;;;;;;13.23;5.35;;;;;;;14.33;100.00;99370.22;11323327;26;20010;-38
2024/04/09 08:11:29;;;;;;;9.85;5.40;;;;;;;14.15;100.00;99392.13;11329338;26;20010;-38
2024/04/09 08:16:30;;;;;;;10.90;5.35;;;;;;;14.02;100.00;99414.88;11290491;26;20031;-38
2024/04/09 08:21:31;;;;;;;12.77;6.40;;;;;;;13.84;100.00;99412.19;11301085;26;20003;-38
2024/04/09 08:26:32;;;;;;;12.07;7.65;;;;;;;13.52;100.00;99427.81;11346915;26;19998;-39
2024/04/09 08:31:33;;;;;;;12.55;9.40;;;;;;;12.87;100.00;99440.50;11323283;26;19999;-39
2024/04/09 08:36:36;;;;;;;13.82;10.27;;;;;;;12.53;100.00;99442.88;11328136;26;20003;-38
2024/04/09 08:41:38;;;;;;;15.50;10.70;;;;;;;12.28;100.00;99425.16;11319999;26;19994;-39
2024/04/09 08:46:40;;;;;;;17.35;10.65;;;;;;;12.20;100.00;99443.41;11329177;26;20006;-38
2024/04/09 08:51:41;;;;;;;15.45;10.57;;;;;;;12.15;100.00;99475.69;11325598;26;20070;-39
2024/04/09 08:56:44;;;;;;;15.57;10.75;;;;;;;12.15;100.00;99515.84;11323780;26;20012;-39
2024/04/09 09:01:45;;;;;;;16.95;11.77;;;;;;;12.04;100.00;99528.78;11329331;26;20042;-37
2024/04/09 09:06:47;;;;;;;13.88;10.15;;;;;;;12.11;100.00;99516.63;11323163;26;20460;-38
2024/04/09 09:11:49;;;;;;;11.43;5.90;;;;;;;12.01;100.00;99479.00;11328522;26;19994;-38
2024/04/09 09:16:50;;;;;;;8.63;5.20;;;;;;;12.04;100.00;99494.75;11329787;26;20010;-38
2024/04/09 09:21:51;;;;;;;8.15;4.15;;;;;;;11.68;100.00;99504.75;11315460;26;20009;-39
2024/04/09 09:27:05;;;;;;;9.05;2.97;;;;;;;11.71;100.00;99523.97;11329928;26;19998;-38
2024/04/09 09:32:12;;;;;;;5.55;2.33;;;;;;;11.42;100.00;99547.13;11284135;26;20376;-38
2024/04/09 09:37:15;;;;;;;5.53;2.05;;;;;;;11.62;100.00;99563.13;11315516;26;20448;-39
2024/04/09 09:42:16;;;;;;;6.00;2.15;;;;;;;11.45;100.00;99568.09;11322906;26;20009;-38
2024/04/09 09:47:17;;;;;;;6.97;2.20;;;;;;;11.32;100.00;99580.13;11332419;26;20002;-38
2024/04/09 09:52:18;;;;;;;6.15;2.40;;;;;;;11.03;100.00;99602.25;11299456;26;20046;-38
2024/04/09 09:57:21;;;;;;;4.90;2.20;;;;;;;11.17;100.00;99620.84;11295014;26;19998;-38
2024/04/09 10:02:23;;;;;;;12.05;2.67;;;;;;;10.90;100.00;99645.63;11341575;26;19998;-39
2024/04/09 10:07:25;;;;;;;7.20;3.00;;;;;;;10.59;100.00;99649.38;11280172;26;20003;-38
2024/04/09 10:12:33;;;;;;;9.05;3.60;;;;;;;10.67;100.00;99666.09;11294099;26;20002;-38
2024/04/09 10:17:49;;;;;;;11.88;4.90;;;;;;;10.65;100.00;99673.00;11325225;26;19998;-38
2024/04/09 10:22:52;;;;;;;9.75;5.00;;;;;;;10.83;100.00;99689.06;11333198;26;20463;-38
2024/04/09 10:28:25;;;;;;;9.70;5.38;;;;;;;10.78;100.00;99674.13;11323665;26;20014;-38
2024/04/09 10:33:32;;;;;;;7.65;4.25;;;;;;;10.33;100.00;99662.78;11283520;26;20014;-39
2024/04/09 10:38:34;;;;;;;7.38;3.45;;;;;;;10.15;100.00;99663.25;11348566;26;20002;-38
2024/04/09 10:43:35;;;;;;;7.40;3.88;;;;;;;10.32;100.00;99653.19;11324558;26;20725;-38
2024/04/09 10:48:36;;;;;;;6.80;3.20;;;;;;;10.26;100.00;99686.09;11330898;26;20020;-39
2024/04/09 10:53:37;;;;;;;7.60;3.10;;;;;;;10.06;100.00;99704.81;11270462;26;20553;-38
2024/04/09 10:58:39;;;;;;;7.75;3.10;;;;;;;10.04;100.00;99685.59;11322289;26;20012;-39
2024/04/09 11:03:40;;;;;;;6.65;3.10;;;;;;;10.18;100.00;99688.50;11334767;26;20009;-39
2024/04/09 11:08:41;;;;;;;6.70;2.55;;;;;;;10.00;100.00;99704.66;11323734;26;20103;-38
2024/04/09 11:13:43;;;;;;;5.82;2.28;;;;;;;10.01;100.00;99695.97;11327213;26;20013;-37
2024/04/09 11:18:57;;;;;;;5.15;2.28;;;;;;;10.16;100.00;99708.50;11295808;26;20002;-38
2024/04/09 11:23:58;;;;;;;7.75;2.40;;;;;;;10.39;100.00;99728.19;11320428;26;20002;-41
2024/04/09 11:28:59;;;;;;;5.55;2.35;;;;;;;10.53;100.00;99735.47;11335849;26;20062;-38
2024/04/09 11:34:01;;;;;;;4.38;1.85;;;;;;;10.82;100.00;99744.81;11329329;26;20034;-40
2024/04/09 11:39:09;;;;;;;6.45;1.80;;;;;;;10.90;100.00;99750.19;11322794;26;20009;-40
2024/04/09 11:44:22;;;;;;;7.57;1.95;;;;;;;10.93;100.00;99751.13;11321403;26;20055;-38
2024/04/09 11:49:24;;;;;;;4.18;1.58;;;;;;;11.01;100.00;99750.41;11326739;26;20442;-40
2024/04/09 11:54:25;;;;;;;3.58;1.90;;;;;;;11.15;100.00;99723.66;11315676;26;20097;-39
2024/04/09 11:59:27;;;;;;;5.07;2.00;;;;;;;11.12;100.00;99713.13;11287763;26;19999;-39
2024/04/09 12:04:33;;;;;;;3.80;1.85;;;;;;;11.31;100.00;99710.88;11320156;26;20005;-39
2024/04/09 12:09:39;;;;;;;5.25;1.83;;;;;;;11.26;100.00;99717.75;11333359;26;20010;-38
2024/04/09 12:14:41;;;;;;;4.55;1.90;;;;;;;11.34;100.00;99722.28;11317232;26;20028;-39
2024/04/09 12:19:42;;;;;;;6.30;2.10;;;;;;;11.54;100.00;99722.63;11322499;26;20347;-39
2024/04/09 12:24:43;;;;;;;5.85;1.77;;;;;;;11.51;100.00;99727.81;11320342;26;20009;-39
2024/04/09 12:29:45;;;;;;;3.28;1.80;;;;;;;11.65;100.00;99725.44;11291057;26;19998;-38
2024/04/09 12:34:46;;;;;;;4.50;1.50;;;;;;;11.60;100.00;99721.84;11337944;26;20012;-39
2024/04/09 12:39:47;;;;;;;5.18;1.80;;;;;;;11.78;100.00;99724.78;11306778;26;20063;-39
2024/04/09 12:45:06;;;;;;;3.17;1.50;;;;;;;11.95;100.00;99713.72;11300184;26;20078;-39
2024/04/09 12:50:25;;;;;;;4.25;1.48;;;;;;;11.83;100.00;99706.53;11277769;26;20070;-38
2024/04/09 12:55:26;;;;;;;4.20;1.55;;;;;;;11.89;100.00;99713.63;11342618;26;19998;-39
2024/04/09 13:05:46;;;;;;;6.07;1.50;;;;;;;11.97;100.00;99738.22;10884608;21;20006;-74
2024/04/09 13:10:47;;;;;;;4.50;1.60;;;;;;;12.10;100.00;99721.81;10863658;27;20024;-75
2024/04/09 13:15:48;;;;;;;2.97;1.40;;;;;;;12.15;100.00;99727.16;10867791;27;20080;-71
2024/04/09 13:20:49;;;;;;;5.05;1.77;;;;;;;12.20;100.00;99734.19;10847820;27;20431;-74
2024/04/09 13:25:52;;;;;;;5.55;1.88;;;;;;;12.10;100.00;99727.06;10811572;27;20333;-73
2024/04/09 13:30:54;;;;;;;6.95;1.63;;;;;;;12.28;100.00;99715.97;10850395;27;20018;-72
2024/04/09 13:35:57;;;;;;;5.28;1.60;;;;;;;12.45;100.00;99724.06;10902687;27;20002;-74
2024/04/09 13:40:58;;;;;;;5.38;1.70;;;;;;;12.40;100.00;99718.78;10837529;27;20010;-75
2024/04/09 13:45:59;;;;;;;3.53;1.45;;;;;;;12.43;100.00;99713.56;10879824;27;20325;-74
2024/04/09 13:51:00;;;;;;;6.38;1.52;;;;;;;12.50;100.00;99718.03;10874184;27;19999;-76
2024/04/09 13:56:01;;;;;;;4.63;1.42;;;;;;;12.57;100.00;99732.09;10842929;27;20364;-75
2024/04/09 14:01:03;;;;;;;3.75;1.55;;;;;;;12.60;100.00;99741.75;10847853;27;20014;-75
2024/04/09 14:06:04;;;;;;;4.18;1.60;;;;;;;12.63;100.00;99747.03;10868113;27;20018;-77
2024/04/09 14:11:05;;;;;;;4.55;1.80;;;;;;;12.55;100.00;99750.41;10849005;27;19999;-76
2024/04/09 14:16:06;;;;;;;5.85;1.70;;;;;;;12.43;96.11;99755.50;10903073;27;20081;-76
2024/04/09 14:21:08;;;;;;;6.15;2.05;;;;;;;12.44;98.97;99746.78;10881275;27;20010;-74
2024/04/09 14:26:09;;;;;;;2.88;1.50;;;;;;;12.50;95.47;99744.25;10838326;27;20002;-75
2024/04/09 14:31:17;;;;;;;3.65;1.60;;;;;;;12.59;98.81;99768.81;10868077;27;20014;-75
2024/04/09 14:36:18;;;;;;;6.60;2.00;;;;;;;12.61;99.40;99762.72;10862272;27;20007;-75
2024/04/09 14:41:21;;;;;;;6.43;1.90;;;;;;;12.63;100.00;99766.25;10907920;27;20010;-74
2024/04/09 14:46:22;;;;;;;7.32;2.03;;;;;;;12.59;97.37;99774.94;10900997;27;20045;-74
2024/04/09 14:51:23;;;;;;;6.78;1.88;;;;;;;12.53;95.05;99772.25;10858976;27;20022;-74
2024/04/09 14:56:24;;;;;;;5.97;1.90;;;;;;;12.43;92.56;99776.47;10901695;27;20408;-74
2024/04/09 15:01:26;;;;;;;6.05;2.10;;;;;;;12.37;95.17;99783.34;10877865;27;19999;-75
2024/04/09 15:06:29;;;;;;;6.18;1.80;;;;;;;12.36;91.20;99792.06;10868034;27;20468;-75
2024/04/09 15:11:30;;;;;;;4.03;1.67;;;;;;;12.30;84.65;99809.47;10890267;27;20031;-73
2024/04/09 15:16:31;;;;;;;6.22;1.55;;;;;;;12.30;86.32;99813.81;10845146;27;20015;-74
2024/04/09 15:21:33;;;;;;;9.65;1.60;;;;;;;12.34;87.27;99815.66;10866723;27;20026;-74
2024/04/09 15:26:34;;;;;;;4.88;1.40;;;;;;;12.26;86.56;99819.88;10845200;27;20010;-74
2024/04/09 15:31:35;;;;;;;5.30;1.50;;;;;;;12.21;81.65;99832.91;10864012;27;20007;-73
2024/04/09 15:36:36;;;;;;;4.65;1.40;;;;;;;12.23;79.86;99838.16;10870484;27;20098;-74
2024/04/09 15:41:37;;;;;;;5.50;1.42;;;;;;;12.25;82.65;99853.06;10872935;27;20026;-72
2024/04/09 15:46:39;;;;;;;3.70;1.30;;;;;;;12.20;79.34;99852.09;10865016;27;20010;-75
2024/04/09 15:51:40;;;;;;;3.90;1.30;;;;;;;12.18;79.72;99868.63;10867728;27;20050;-73
2024/04/09 15:56:41;;;;;;;7.90;1.30;;;;;;;12.15;81.23;99858.13;10871950;27;20010;-75
2024/04/09 16:01:47;;;;;;;6.05;1.27;;;;;;;12.17;80.71;99865.13;10890093;27;20038;-75
2024/04/09 16:06:48;;;;;;;4.30;1.20;;;;;;;12.08;76.71;99888.53;10881698;27;20021;-73
2024/04/09 16:11:49;;;;;;;4.30;1.13;;;;;;;12.04;74.43;99894.59;10899662;27;20476;-74
2024/04/09 16:16:50;;;;;;;5.15;1.33;;;;;;;12.01;78.48;99894.53;10850454;27;20021;-75
2024/04/09 16:21:52;;;;;;;5.45;1.42;;;;;;;11.98;82.41;99918.03;10906967;27;20476;-75
2024/04/09 16:26:53;;;;;;;6.35;1.20;;;;;;;11.94;83.39;99922.34;10881444;27;20038;-74
2024/04/09 16:31:55;;;;;;;7.95;1.75;;;;;;;11.94;85.36;99922.34;10906921;27;20020;-75
2024/04/09 16:36:56;;;;;;;5.90;1.23;;;;;;;11.79;83.67;99932.47;10894370;27;20460;-75
2024/04/09 16:41:57;;;;;;;6.50;1.13;;;;;;;11.87;80.54;99940.53;10907395;27;20007;-74
2024/04/09 16:46:58;;;;;;;3.28;1.20;;;;;;;11.77;79.10;99936.81;10879377;27;20081;-75
2024/04/09 16:51:59;;;;;;;4.70;1.10;;;;;;;11.74;78.49;99940.25;10906263;27;20002;-75
2024/04/09 16:57:00;;;;;;;6.35;1.15;;;;;;;11.70;77.84;99933.19;10909060;27;20348;-74
2024/04/09 17:02:01;;;;;;;4.65;1.30;;;;;;;11.70;81.59;99932.28;10873165;27;20006;-72
2024/04/09 17:07:03;;;;;;;3.25;1.13;;;;;;;11.65;83.32;99934.84;10873868;27;20356;-74
2024/04/09 17:12:04;;;;;;;3.65;1.10;;;;;;;11.72;86.03;99954.16;10869810;27;20014;-74
2024/04/09 17:17:05;;;;;;;5.47;1.05;;;;;;;11.58;84.36;99946.03;10891340;27;20353;-76
2024/04/09 17:22:07;;;;;;;4.63;1.20;;;;;;;11.66;84.64;99954.91;10885893;27;20471;-74
2024/04/09 17:27:08;;;;;;;4.22;1.20;;;;;;;11.78;84.16;99959.53;10842651;27;20002;-76
2024/04/09 17:32:10;;;;;;;3.90;0.98;;;;;;;11.75;78.98;99962.97;10888907;27;20042;-76
2024/04/09 17:37:11;;;;;;;5.32;1.10;;;;;;;11.70;80.55;99971.56;10891709;27;20350;-74
2024/04/09 17:42:13;;;;;;;4.80;1.20;;;;;;;11.66;82.40;99980.22;10893709;27;19998;-74
2024/04/09 17:47:16;;;;;;;5.45;0.98;;;;;;;11.53;82.31;99993.03;10870426;27;20002;-74
2024/04/09 17:52:17;;;;;;;4.25;1.02;;;;;;;11.53;83.79;100000.88;10873462;27;20003;-74
2024/04/09 17:57:19;;;;;;;3.83;1.20;;;;;;;11.48;82.95;100005.16;10905769;27;20016;-76
2024/04/09 18:02:20;;;;;;;3.92;1.15;;;;;;;11.47;82.78;100015.56;10864177;27;20006;-73
2024/04/09 18:07:21;;;;;;;6.00;1.45;;;;;;;11.43;85.15;100022.47;10905813;27;20002;-76
2024/04/09 18:12:24;;;;;;;4.22;1.20;;;;;;;11.41;85.04;100020.66;10850628;27;20007;-75
2024/04/09 18:17:27;;;;;;;5.40;1.23;;;;;;;11.38;86.36;100043.31;10906317;27;20030;-75
2024/04/09 18:22:28;;;;;;;7.65;1.42;;;;;;;11.36;87.82;100050.25;10895199;27;20017;-74
2024/04/09 18:27:29;;;;;;;2.92;1.30;;;;;;;11.32;88.67;100065.81;10888887;27;20071;-74
2024/04/09 18:32:30;;;;;;;3.05;1.20;;;;;;;11.25;91.92;100061.28;10874509;27;20343;-75
2024/04/09 18:37:32;;;;;;;4.55;1.40;;;;;;;11.20;91.12;100076.88;10901387;27;20007;-74
2024/04/09 18:42:34;;;;;;;5.45;1.40;;;;;;;11.11;91.92;100081.88;10900665;27;20367;-74
2024/04/09 18:47:35;;;;;;;3.85;1.35;;;;;;;11.10;94.37;100095.78;10900287;27;20003;-75
2024/04/09 18:52:36;;;;;;;2.67;1.20;;;;;;;11.06;94.82;100109.63;10890895;27;20081;-75
2024/04/09 18:57:38;;;;;;;4.05;1.20;;;;;;;11.07;93.36;100119.28;10898975;27;20002;-74
2024/04/09 19:02:39;;;;;;;3.75;1.13;;;;;;;11.06;97.02;100125.34;10857246;27;20098;-75
2024/04/09 19:07:40;;;;;;;3.28;1.50;;;;;;;11.00;100.00;100156.56;10912447;27;20014;-75
2024/04/09 19:12:41;;;;;;;3.42;1.60;;;;;;;10.54;100.00;100173.59;10876127;27;20014;-76
2024/04/09 19:17:42;;;;;;;4.28;1.70;;;;;;;10.34;100.00;100180.84;10870829;27;20535;-76
2024/04/09 19:22:44;;;;;;;4.50;1.40;;;;;;;9.99;100.00;100191.97;10879419;27;20006;-74
2024/04/09 19:27:45;;;;;;;4.20;1.60;;;;;;;9.76;100.00;100198.19;10872376;27;20080;-75
2024/04/09 19:32:46;;;;;;;5.10;1.60;;;;;;;9.71;100.00;100203.25;10890999;27;20376;-75
2024/04/09 19:37:47;;;;;;;5.05;1.80;;;;;;;9.90;100.00;100219.53;10880607;27;20017;-73
2024/04/09 19:42:48;;;;;;;2.97;1.60;;;;;;;10.00;100.00;100222.47;10865115;27;20006;-74
2024/04/09 19:47:49;;;;;;;2.75;1.65;;;;;;;9.99;100.00;100225.03;10865634;27;20016;-74
2024/04/09 19:52:50;;;;;;;3.60;1.50;;;;;;;10.06;100.00;100229.59;10893964;27;20002;-74
2024/04/09 19:57:52;;;;;;;5.82;1.83;;;;;;;10.00;100.00;100238.13;10885077;27;20007;-73
2024/04/09 20:02:53;;;;;;;3.67;1.67;;;;;;;9.94;100.00;100255.31;10903431;27;20114;-74
2024/04/09 20:07:54;;;;;;;3.08;1.50;;;;;;;9.82;100.00;100260.13;10893943;27;20072;-74
2024/04/09 20:12:55;;;;;;;2.78;1.48;;;;;;;9.84;100.00;100272.41;10871947;27;20018;-74
2024/04/09 20:17:56;;;;;;;5.65;1.45;;;;;;;9.77;100.00;100276.53;10851140;27;20463;-75
2024/04/09 20:22:57;;;;;;;4.10;1.60;;;;;;;9.85;100.00;100274.16;10890322;27;20375;-74
2024/04/09 20:27:58;;;;;;;4.78;1.40;;;;;;;9.89;100.00;100288.22;10900540;27;20348;-74
2024/04/09 20:33:00;;;;;;;5.05;1.60;;;;;;;9.88;100.00;100283.84;10869708;27;19998;-74
2024/04/09 20:38:01;;;;;;;5.25;1.63;;;;;;;9.86;100.00;100301.16;10910193;27;20006;-75
2024/04/09 20:43:04;;;;;;;3.30;1.50;;;;;;;9.74;100.00;100307.75;10909177;27;20011;-75
2024/04/09 20:48:05;;;;;;;5.50;1.40;;;;;;;9.87;100.00;100309.06;10898015;27;20336;-74
2024/04/09 20:53:06;;;;;;;7.05;1.60;;;;;;;9.88;100.00;100309.94;10892849;27;20507;-74
2024/04/09 20:58:07;;;;;;;6.07;1.70;;;;;;;9.96;100.00;100313.72;10900076;27;20014;-74
2024/04/09 21:03:08;;;;;;;6.70;1.65;;;;;;;9.98;100.00;100302.44;10867455;27;20017;-74
2024/04/09 21:08:11;;;;;;;7.90;1.58;;;;;;;9.96;100.00;100300.66;10898888;27;19998;-74
2024/04/09 21:13:12;;;;;;;6.35;1.70;;;;;;;9.89;100.00;100315.19;10896024;27;20002;-74
2024/04/09 21:18:13;;;;;;;3.42;1.30;;;;;;;9.77;100.00;100341.78;10885439;27;20015;-74
2024/04/09 21:23:14;;;;;;;3.92;1.40;;;;;;;9.83;100.00;100351.56;10881432;27;20450;-75
2024/04/09 21:28:15;;;;;;;5.43;1.35;;;;;;;9.74;100.00;100349.50;10857823;27;20010;-75
2024/04/09 21:33:16;;;;;;;3.33;1.50;;;;;;;9.68;100.00;100362.34;10834184;27;20019;-74
2024/04/09 21:38:17;;;;;;;7.25;2.00;;;;;;;9.71;100.00;100358.97;10890274;27;20014;-75
2024/04/09 21:43:19;;;;;;;7.22;2.22;;;;;;;9.52;100.00;100365.25;10884607;27;20335;-74
2024/04/09 21:48:20;;;;;;;8.70;2.50;;;;;;;9.34;100.00;100364.59;10896343;27;20371;-72
2024/04/09 21:53:21;;;;;;;5.78;2.33;;;;;;;9.24;100.00;100379.00;10888208;27;20017;-74
2024/04/09 21:58:22;;;;;;;5.25;2.10;;;;;;;9.23;100.00;100375.50;10896524;27;20350;-74
2024/04/09 22:03:23;;;;;;;5.65;1.90;;;;;;;9.23;100.00;100383.34;10874879;27;20006;-74
2024/04/09 22:08:25;;;;;;;7.18;1.88;;;;;;;9.08;100.00;100385.38;10894885;27;20449;-74
2024/04/09 22:13:26;;;;;;;5.18;1.67;;;;;;;9.08;100.00;100393.19;10868433;27;20459;-74
2024/04/09 22:18:27;;;;;;;5.30;1.90;;;;;;;9.09;100.00;100404.50;10871074;27;20153;-74
2024/04/09 22:23:28;;;;;;;6.28;2.13;;;;;;;8.89;100.00;100407.22;10887153;27;20018;-75
2024/04/09 22:28:30;;;;;;;9.07;2.40;;;;;;;8.78;100.00;100425.03;10889629;27;20019;-74
2024/04/09 22:33:31;;;;;;;7.22;2.40;;;;;;;8.73;100.00;100439.63;10892099;27;20107;-74
2024/04/09 22:38:32;;;;;;;10.10;2.53;;;;;;;8.72;100.00;100431.72;10896212;27;20010;-74
2024/04/09 22:43:33;;;;;;;10.65;2.67;;;;;;;8.84;100.00;100440.91;10867788;27;20342;-73
2024/04/09 22:48:34;;;;;;;7.10;2.38;;;;;;;8.65;100.00;100453.16;10859235;27;20015;-74
2024/04/09 22:53:36;;;;;;;8.20;2.50;;;;;;;8.64;100.00;100461.81;10899951;27;20011;-74
2024/04/09 22:58:37;;;;;;;8.05;2.20;;;;;;;8.62;100.00;100456.50;10895440;27;20022;-74
2024/04/09 23:03:38;;;;;;;8.93;2.55;;;;;;;8.66;100.00;100460.13;10890980;27;20014;-74
2024/04/09 23:08:39;;;;;;;7.22;2.30;;;;;;;8.66;100.00;100467.94;10866902;27;20172;-74